createdAt,value
2018-04-12T00:00:21.864Z,47.60
2018-04-12T00:01:22.052Z,46.90
2018-04-12T00:02:22.237Z,46.50
2018-04-12T00:03:22.424Z,44.80
2018-04-12T00:04:22.611Z,44.00
2018-04-12T00:05:22.797Z,45.10
2018-04-12T00:06:22.985Z,46.50
2018-04-12T00:07:23.170Z,40.80
2018-04-12T00:08:23.355Z,47.40
2018-04-12T00:09:23.543Z,49.40
2018-04-12T00:10:23.728Z,48.60
2018-04-12T00:11:23.913Z,48.60
2018-04-12T00:12:24.105Z,48.50
2018-04-12T00:13:24.287Z,48.70
2018-04-12T00:14:24.473Z,46.80
2018-04-12T00:15:24.660Z,47.30
2018-04-12T00:16:24.847Z,50.80
2018-04-12T00:17:25.035Z,49.40
2018-04-12T00:18:25.223Z,46.30
2018-04-12T00:19:25.409Z,48.90
2018-04-12T00:20:25.594Z,48.30
2018-04-12T00:21:25.782Z,47.20
2018-04-12T00:22:25.967Z,48.30
2018-04-12T00:23:26.153Z,46.40
2018-04-12T00:24:26.339Z,48.20
2018-04-12T00:25:26.527Z,47.20
2018-04-12T00:26:26.713Z,51.70
2018-04-12T00:27:26.899Z,51.00
2018-04-12T00:28:27.086Z,53.10
2018-04-12T00:29:27.272Z,50.00
2018-04-12T00:30:27.459Z,49.20
2018-04-12T00:31:27.645Z,50.70
2018-04-12T00:32:27.831Z,50.60
2018-04-12T00:33:28.021Z,52.00
2018-04-12T00:34:28.202Z,51.70
2018-04-12T00:35:28.388Z,52.40
2018-04-12T00:36:28.578Z,53.20
2018-04-12T00:37:28.761Z,52.10
2018-04-12T00:38:28.947Z,52.30
2018-04-12T00:39:29.135Z,57.20
2018-04-12T00:40:29.323Z,55.90
2018-04-12T00:41:29.512Z,55.40
2018-04-12T00:42:29.697Z,56.70
2018-04-12T00:43:29.883Z,55.50
2018-04-12T00:44:30.072Z,54.90
2018-04-12T00:45:30.257Z,59.10
2018-04-12T00:46:30.443Z,58.80
2018-04-12T00:47:30.631Z,57.80
2018-04-12T00:48:30.816Z,59.10
2018-04-12T00:49:31.004Z,58.50
2018-04-12T00:50:31.188Z,56.30
2018-04-12T00:51:31.375Z,57.40
2018-04-12T00:52:31.562Z,57.80
2018-04-12T00:53:31.748Z,56.40
2018-04-12T00:54:31.935Z,56.30
2018-04-12T00:55:32.121Z,56.20
2018-04-12T00:56:32.308Z,54.50
2018-04-12T00:57:32.494Z,56.70
2018-04-12T00:58:32.682Z,56.30
2018-04-12T00:59:32.869Z,58.20
2018-04-12T01:00:33.055Z,57.60
2018-04-12T01:01:33.243Z,56.20
2018-04-12T01:02:33.431Z,57.10
2018-04-12T01:03:33.618Z,56.70
2018-04-12T01:04:33.804Z,58.00
2018-04-12T01:05:33.991Z,59.80
2018-04-12T01:06:34.187Z,59.40
2018-04-12T01:07:34.367Z,59.20
2018-04-12T01:08:34.554Z,56.90
2018-04-12T01:09:34.741Z,59.70
2018-04-12T01:10:34.928Z,59.50
2018-04-12T01:11:35.115Z,58.40
2018-04-12T01:12:35.299Z,61.10
2018-04-12T01:13:35.487Z,63.10
2018-04-12T01:14:35.674Z,60.70
2018-04-12T01:15:35.859Z,57.30
2018-04-12T01:16:36.045Z,61.00
2018-04-12T01:17:36.232Z,58.00
2018-04-12T01:18:36.420Z,61.80
2018-04-12T01:19:36.607Z,60.40
2018-04-12T01:20:36.796Z,61.30
2018-04-12T01:21:36.982Z,61.30
2018-04-12T01:22:37.168Z,61.60
2018-04-12T01:23:37.356Z,60.20
2018-04-12T01:24:37.542Z,62.20
2018-04-12T01:25:37.731Z,62.50
2018-04-12T01:26:37.917Z,59.50
2018-04-12T01:27:38.102Z,61.90
2018-04-12T01:28:38.291Z,60.90
2018-04-12T01:29:38.478Z,61.70
2018-04-12T01:30:38.665Z,62.20
2018-04-12T01:31:38.854Z,63.00
2018-04-12T01:32:39.040Z,61.80
2018-04-12T01:33:39.227Z,63.40
2018-04-12T01:34:39.414Z,62.90
2018-04-12T01:35:39.600Z,62.00
2018-04-12T01:36:39.787Z,62.80
2018-04-12T01:37:39.973Z,63.90
2018-04-12T01:38:40.161Z,61.80
2018-04-12T01:39:40.348Z,64.00
2018-04-12T01:40:40.535Z,62.80
2018-04-12T01:41:40.723Z,61.90
2018-04-12T01:42:40.909Z,63.60
2018-04-12T01:43:41.095Z,64.30
2018-04-12T01:44:41.282Z,64.10
2018-04-12T01:45:41.468Z,62.60
2018-04-12T01:46:41.655Z,62.40
2018-04-12T01:47:41.841Z,62.40
2018-04-12T01:48:42.029Z,62.60
2018-04-12T01:49:42.215Z,60.70
2018-04-12T01:50:42.402Z,63.40
2018-04-12T01:51:42.589Z,63.20
2018-04-12T01:52:42.775Z,63.30
2018-04-12T01:53:42.963Z,63.20
2018-04-12T01:54:43.149Z,64.90
2018-04-12T01:55:43.337Z,63.10
2018-04-12T01:56:43.523Z,64.80
2018-04-12T01:57:43.709Z,63.70
2018-04-12T01:58:43.896Z,63.20
2018-04-12T01:59:44.081Z,64.80
2018-04-12T02:00:44.267Z,64.90
2018-04-12T02:01:44.458Z,65.40
2018-04-12T02:02:44.648Z,66.70
2018-04-12T02:03:44.829Z,63.80
2018-04-12T02:04:45.016Z,63.70
2018-04-12T02:05:45.203Z,64.20
2018-04-12T02:06:45.390Z,63.80
2018-04-12T02:07:45.576Z,64.90
2018-04-12T02:08:45.763Z,66.30
2018-04-12T02:09:45.951Z,62.80
2018-04-12T02:10:46.137Z,64.20
2018-04-12T02:11:46.325Z,64.00
2018-04-12T02:12:46.511Z,64.50
2018-04-12T02:13:46.700Z,62.00
2018-04-12T02:14:46.887Z,65.30
2018-04-12T02:15:47.074Z,62.90
2018-04-12T02:16:47.260Z,63.20
2018-04-12T02:17:47.447Z,65.40
2018-04-12T02:18:47.634Z,63.30
2018-04-12T02:19:47.824Z,64.50
2018-04-12T02:20:48.009Z,62.30
2018-04-12T02:21:48.197Z,62.40
2018-04-12T02:22:48.388Z,62.40
2018-04-12T02:23:48.571Z,62.90
2018-04-12T02:24:48.757Z,64.00
2018-04-12T02:25:48.944Z,62.10
2018-04-12T02:26:49.130Z,63.30
2018-04-12T02:27:49.317Z,64.60
2018-04-12T02:28:49.553Z,64.50
2018-04-12T02:29:49.691Z,61.60
2018-04-12T02:30:49.879Z,56.20
2018-04-12T02:31:50.064Z,65.60
2018-04-12T02:32:50.251Z,64.20
2018-04-12T02:33:50.439Z,64.30
2018-04-12T02:34:50.626Z,65.30
2018-04-12T02:35:50.813Z,63.80
2018-04-12T02:36:51.000Z,65.50
2018-04-12T02:37:51.186Z,66.90
2018-04-12T02:38:51.373Z,64.50
2018-04-12T02:39:51.559Z,65.40
2018-04-12T02:40:51.748Z,65.90
2018-04-12T02:41:51.933Z,64.10
2018-04-12T02:42:52.119Z,68.20
2018-04-12T02:43:52.306Z,66.10
2018-04-12T02:44:52.493Z,64.80
2018-04-12T02:45:52.686Z,66.70
2018-04-12T02:46:52.868Z,66.10
2018-04-12T02:47:53.056Z,66.20
2018-04-12T02:48:53.240Z,67.30
2018-04-12T02:49:53.427Z,65.70
2018-04-12T02:50:53.614Z,68.20
2018-04-12T02:51:53.801Z,69.80
2018-04-12T02:52:53.988Z,67.90
2018-04-12T02:53:54.174Z,67.00
2018-04-12T02:54:54.361Z,69.00
2018-04-12T02:55:54.548Z,68.70
2018-04-12T02:56:54.735Z,66.10
2018-04-12T02:57:54.925Z,68.80
2018-04-12T02:58:55.108Z,67.10
2018-04-12T02:59:55.295Z,68.10
2018-04-12T03:00:55.481Z,69.30
2018-04-12T03:01:55.669Z,67.10
2018-04-12T03:02:55.855Z,63.00
2018-04-12T03:03:56.041Z,62.20
2018-04-12T03:04:56.227Z,64.50
2018-04-12T03:05:56.414Z,69.10
2018-04-12T03:06:56.600Z,64.40
2018-04-12T03:07:56.787Z,65.70
2018-04-12T03:08:56.974Z,65.90
2018-04-12T03:09:57.162Z,63.00
2018-04-12T03:10:57.349Z,63.60
2018-04-12T03:11:57.536Z,61.30
2018-04-12T03:12:57.727Z,56.80
2018-04-12T03:13:57.909Z,62.80
2018-04-12T03:14:58.096Z,65.30
2018-04-12T03:15:58.284Z,64.90
2018-04-12T03:16:58.471Z,63.40
2018-04-12T03:17:58.662Z,66.60
2018-04-12T03:18:58.845Z,66.60
2018-04-12T03:19:59.033Z,66.40
2018-04-12T03:20:59.218Z,61.40
2018-04-12T03:21:59.402Z,56.80
2018-04-12T03:22:59.589Z,65.30
2018-04-12T03:23:59.782Z,66.30
2018-04-12T03:24:59.960Z,63.40
2018-04-12T03:26:00.150Z,64.10
2018-04-12T03:27:00.334Z,56.80
2018-04-12T03:28:00.520Z,58.50
2018-04-12T03:29:00.706Z,63.20
2018-04-12T03:30:00.893Z,65.70
2018-04-12T03:31:01.082Z,65.10
2018-04-12T03:32:01.271Z,61.10
2018-04-12T03:33:01.454Z,65.00
2018-04-12T03:34:01.647Z,66.50
2018-04-12T03:35:01.828Z,67.20
2018-04-12T03:36:02.015Z,67.30
2018-04-12T03:37:02.201Z,67.40
2018-04-12T03:38:02.389Z,63.90
2018-04-12T03:39:02.575Z,66.70
2018-04-12T03:40:02.764Z,64.10
2018-04-12T03:41:02.949Z,66.50
2018-04-12T03:42:03.135Z,68.60
2018-04-12T03:43:03.321Z,62.20
2018-04-12T03:44:03.507Z,65.40
2018-04-12T03:45:03.696Z,67.10
2018-04-12T03:46:03.881Z,63.00
2018-04-12T03:47:04.068Z,63.70
2018-04-12T03:48:04.256Z,61.80
2018-04-12T03:49:04.451Z,65.90
2018-04-12T03:50:04.637Z,65.30
2018-04-12T03:51:04.817Z,66.20
2018-04-12T03:52:05.003Z,65.10
2018-04-12T03:53:05.189Z,67.60
2018-04-12T03:54:05.375Z,58.90
2018-04-12T03:55:05.562Z,64.20
2018-04-12T03:56:05.749Z,58.00
2018-04-12T03:57:05.937Z,50.80
2018-04-12T03:58:06.372Z,66.10
2018-04-12T03:59:06.324Z,65.10
2018-04-12T04:00:06.494Z,65.10
2018-04-12T04:01:06.703Z,66.00
2018-04-12T04:02:06.888Z,60.80
2018-04-12T04:03:07.076Z,58.50
2018-04-12T04:04:07.261Z,59.80
2018-04-12T04:05:07.449Z,62.00
2018-04-12T04:06:07.635Z,60.70
2018-04-12T04:07:07.823Z,59.60
2018-04-12T04:08:08.009Z,62.50
2018-04-12T04:09:08.194Z,66.40
2018-04-12T04:10:08.381Z,65.30
2018-04-12T04:11:08.569Z,60.20
2018-04-12T04:12:08.757Z,60.20
2018-04-12T04:13:08.943Z,57.50
2018-04-12T04:14:09.130Z,64.90
2018-04-12T04:15:09.316Z,58.10
2018-04-12T04:16:09.502Z,61.50
2018-04-12T04:17:09.689Z,62.80
2018-04-12T04:18:09.876Z,63.50
2018-04-12T04:19:10.062Z,61.70
2018-04-12T04:20:10.251Z,62.00
2018-04-12T04:21:10.438Z,62.50
2018-04-12T04:22:10.622Z,63.60
2018-04-12T04:23:10.810Z,64.70
2018-04-12T04:24:11.001Z,63.20
2018-04-12T04:25:11.185Z,63.60
2018-04-12T04:26:11.372Z,62.60
2018-04-12T04:27:11.562Z,60.40
2018-04-12T04:28:11.753Z,56.00
2018-04-12T04:29:11.933Z,58.50
2018-04-12T04:30:12.120Z,58.40
2018-04-12T04:31:12.307Z,57.20
2018-04-12T04:32:12.494Z,61.20
2018-04-12T04:33:12.681Z,62.30
2018-04-12T04:34:12.867Z,63.50
2018-04-12T04:35:13.056Z,62.70
2018-04-12T04:36:13.241Z,64.40
2018-04-12T04:37:13.430Z,60.30
2018-04-12T04:38:13.616Z,64.90
2018-04-12T04:39:13.803Z,60.30
2018-04-12T04:40:13.989Z,62.70
2018-04-12T04:41:14.176Z,62.40
2018-04-12T04:42:14.363Z,63.10
2018-04-12T04:43:14.549Z,61.70
2018-04-12T04:44:14.737Z,63.30
2018-04-12T04:45:14.923Z,62.90
2018-04-12T04:46:15.110Z,64.20
2018-04-12T04:47:15.299Z,62.20
2018-04-12T04:48:15.501Z,48.40
2018-04-12T04:49:15.671Z,61.80
2018-04-12T04:50:15.864Z,59.10
2018-04-12T04:51:16.047Z,62.70
2018-04-12T04:52:16.232Z,62.40
2018-04-12T04:53:16.423Z,62.70
2018-04-12T04:54:16.608Z,62.90
2018-04-12T04:55:16.795Z,64.40
2018-04-12T04:56:16.982Z,64.60
2018-04-12T04:57:17.172Z,65.20
2018-04-12T04:58:17.356Z,65.70
2018-04-12T04:59:17.541Z,64.30
2018-04-12T05:00:17.727Z,63.40
2018-04-12T05:01:17.916Z,63.80
2018-04-12T05:02:18.102Z,65.30
2018-04-12T05:03:18.289Z,66.50
2018-04-12T05:04:18.478Z,56.60
2018-04-12T05:05:18.665Z,63.80
2018-04-12T05:06:18.853Z,65.60
2018-04-12T05:07:19.059Z,67.50
2018-04-12T05:08:19.235Z,66.20
2018-04-12T05:09:19.423Z,64.30
2018-04-12T05:10:19.608Z,65.80
2018-04-12T05:11:19.796Z,65.70
2018-04-12T05:12:19.984Z,64.40
2018-04-12T05:13:20.169Z,66.20
2018-04-12T05:14:20.356Z,62.20
2018-04-12T05:15:20.538Z,66.10
2018-04-12T05:16:20.723Z,65.70
2018-04-12T05:17:20.904Z,67.60
2018-04-12T05:18:21.094Z,67.10
2018-04-12T05:19:21.279Z,66.50
2018-04-12T05:20:21.467Z,66.40
2018-04-12T05:21:21.655Z,66.30
2018-04-12T05:22:21.843Z,64.00
2018-04-12T05:23:22.030Z,61.90
2018-04-12T05:24:22.216Z,64.20
2018-04-12T05:25:22.403Z,61.20
2018-04-12T05:26:22.591Z,61.70
2018-04-12T05:27:22.777Z,61.50
2018-04-12T05:28:22.966Z,61.20
2018-04-12T05:29:23.153Z,61.00
2018-04-12T05:30:23.341Z,58.90
2018-04-12T05:31:23.529Z,58.50
2018-04-12T05:32:23.720Z,58.80
2018-04-12T05:33:23.906Z,59.20
2018-04-12T05:34:24.093Z,58.20
2018-04-12T05:35:24.282Z,58.00
2018-04-12T05:36:24.470Z,55.70
2018-04-12T05:37:24.661Z,57.10
2018-04-12T05:38:24.853Z,57.60
2018-04-12T05:39:25.038Z,57.70
2018-04-12T05:40:25.228Z,55.20
2018-04-12T05:41:25.417Z,55.50
2018-04-12T05:42:25.608Z,55.80
2018-04-12T05:43:25.798Z,55.10
2018-04-12T05:44:25.984Z,55.20
2018-04-12T05:45:26.173Z,56.10
2018-04-12T05:46:26.388Z,55.10
2018-04-12T05:47:26.551Z,55.30
2018-04-12T05:48:26.739Z,56.50
2018-04-12T05:49:26.929Z,57.60
2018-04-12T05:50:27.118Z,57.10
2018-04-12T05:51:27.306Z,52.50
2018-04-12T05:52:27.497Z,55.40
2018-04-12T05:53:27.685Z,51.70
2018-04-12T05:54:27.876Z,52.40
2018-04-12T05:55:28.064Z,51.30
2018-04-12T05:56:28.252Z,52.40
2018-04-12T05:57:28.440Z,52.60
2018-04-12T05:58:28.629Z,55.50
2018-04-12T05:59:28.817Z,55.50
2018-04-12T06:00:29.006Z,55.10
2018-04-12T06:01:29.194Z,54.80
2018-04-12T06:02:29.383Z,56.50
2018-04-12T06:03:29.570Z,55.40
2018-04-12T06:04:29.757Z,54.50
2018-04-12T06:05:29.947Z,51.90
2018-04-12T06:06:30.137Z,49.60
2018-04-12T06:07:30.328Z,55.00
2018-04-12T06:08:30.518Z,50.00
2018-04-12T06:09:30.703Z,53.50
2018-04-12T06:10:30.895Z,54.10
2018-04-12T06:11:31.081Z,56.00
2018-04-12T06:12:31.271Z,55.90
2018-04-12T06:13:31.456Z,57.20
2018-04-12T06:14:31.643Z,54.10
2018-04-12T06:15:31.838Z,51.10
2018-04-12T06:16:32.022Z,55.50
2018-04-12T06:17:32.210Z,55.60
2018-04-12T06:18:32.403Z,54.20
2018-04-12T06:19:32.588Z,52.50
2018-04-12T06:20:32.776Z,52.00
2018-04-12T06:21:32.963Z,51.20
2018-04-12T06:22:33.159Z,54.30
2018-04-12T06:23:33.339Z,55.80
2018-04-12T06:24:33.526Z,56.40
2018-04-12T06:25:33.715Z,53.80
2018-04-12T06:26:33.902Z,55.70
2018-04-12T06:27:34.090Z,49.20
2018-04-12T06:28:34.278Z,51.30
2018-04-12T06:29:34.466Z,56.10
2018-04-12T06:30:34.654Z,50.50
2018-04-12T06:31:34.843Z,52.00
2018-04-12T06:32:35.035Z,53.60
2018-04-12T06:33:35.220Z,53.40
2018-04-12T06:34:35.410Z,51.50
2018-04-12T06:35:35.598Z,54.40
2018-04-12T06:36:35.786Z,54.20
2018-04-12T06:37:35.976Z,53.50
2018-04-12T06:38:36.164Z,54.80
2018-04-12T06:39:36.352Z,48.90
2018-04-12T06:40:36.539Z,50.50
2018-04-12T06:41:36.728Z,53.20
2018-04-12T06:42:36.917Z,51.70
2018-04-12T06:43:37.106Z,48.40
2018-04-12T06:44:37.294Z,49.10
2018-04-12T06:45:37.484Z,56.40
2018-04-12T06:46:37.673Z,58.70
2018-04-12T06:47:37.862Z,54.90
2018-04-12T06:48:38.050Z,52.10
2018-04-12T06:49:38.239Z,49.80
2018-04-12T06:50:38.427Z,51.10
2018-04-12T06:51:38.617Z,49.50
2018-04-12T06:52:38.805Z,49.00
2018-04-12T06:53:38.998Z,53.40
2018-04-12T06:54:39.183Z,49.70
2018-04-12T06:55:39.373Z,47.40
2018-04-12T06:56:39.566Z,48.60
2018-04-12T06:57:39.756Z,52.90
2018-04-12T06:58:39.943Z,51.20
2018-04-12T06:59:40.135Z,49.10
2018-04-12T07:00:40.326Z,48.80
2018-04-12T07:01:40.516Z,47.80
2018-04-12T07:02:40.705Z,47.30
2018-04-12T07:03:40.899Z,47.00
2018-04-12T07:04:41.089Z,49.50
2018-04-12T07:05:41.290Z,46.80
2018-04-12T07:06:41.473Z,46.20
2018-04-12T07:07:41.665Z,46.10
2018-04-12T07:08:41.857Z,46.40
2018-04-12T07:09:42.048Z,46.10
2018-04-12T07:10:42.239Z,45.90
2018-04-12T07:11:42.432Z,45.20
2018-04-12T07:12:42.623Z,44.20
2018-04-12T07:13:42.815Z,44.10
2018-04-12T07:14:43.008Z,40.00
2018-04-12T07:15:43.200Z,43.90
2018-04-12T07:16:43.392Z,45.90
2018-04-12T07:17:43.588Z,45.40
2018-04-12T07:18:43.779Z,45.50
2018-04-12T07:19:43.971Z,45.90
2018-04-12T07:20:44.165Z,45.90
2018-04-12T07:21:44.362Z,44.10
2018-04-12T07:22:44.555Z,43.80
2018-04-12T07:23:44.750Z,42.40
2018-04-12T07:24:44.945Z,45.30
2018-04-12T07:25:45.139Z,44.40
2018-04-12T07:26:45.339Z,43.80
2018-04-12T07:27:45.532Z,45.20
2018-04-12T07:28:45.728Z,42.90
2018-04-12T07:29:45.925Z,42.60
2018-04-12T07:30:46.122Z,41.30
2018-04-12T07:31:46.317Z,42.80
2018-04-12T07:32:46.515Z,43.20
2018-04-12T07:33:46.715Z,42.40
2018-04-12T07:34:46.911Z,42.90
2018-04-12T07:35:47.110Z,42.70
2018-04-12T07:36:47.307Z,42.50
2018-04-12T07:37:47.509Z,41.70
2018-04-12T07:38:47.706Z,42.60
2018-04-12T07:39:47.905Z,43.20
2018-04-12T07:40:48.104Z,39.40
2018-04-12T07:41:48.306Z,38.40
2018-04-12T07:42:48.504Z,37.40
2018-04-12T07:43:48.710Z,39.90
2018-04-12T07:44:48.904Z,41.40
2018-04-12T07:45:49.103Z,42.60
2018-04-12T07:46:49.305Z,41.50
2018-04-12T07:47:49.506Z,41.50
2018-04-12T07:48:49.706Z,42.40
2018-04-12T07:49:49.906Z,42.50
2018-04-12T07:50:50.106Z,40.40
2018-04-12T07:51:50.306Z,40.70
2018-04-12T07:52:50.507Z,40.90
2018-04-12T07:53:50.705Z,37.70
2018-04-12T07:54:50.903Z,40.00
2018-04-12T07:55:51.101Z,42.80
2018-04-12T07:56:51.298Z,43.70
2018-04-12T07:57:51.499Z,43.70
2018-04-12T07:58:51.694Z,44.20
2018-04-12T07:59:51.894Z,42.00
2018-04-12T08:00:52.089Z,42.50
2018-04-12T08:01:52.287Z,39.30
2018-04-12T08:02:52.484Z,40.30
2018-04-12T08:03:52.682Z,42.40
2018-04-12T08:04:52.879Z,43.70
2018-04-12T08:05:53.076Z,43.60
2018-04-12T08:06:53.277Z,44.00
2018-04-12T08:07:53.469Z,42.50
2018-04-12T08:08:53.667Z,43.40
2018-04-12T08:09:53.864Z,41.10
2018-04-12T08:10:54.059Z,40.60
2018-04-12T08:11:54.258Z,38.60
2018-04-12T08:12:54.455Z,41.60
2018-04-12T08:13:54.659Z,42.00
2018-04-12T08:14:54.851Z,42.60
2018-04-12T08:15:55.048Z,39.00
2018-04-12T08:16:55.245Z,40.00
2018-04-12T08:17:55.442Z,37.70
2018-04-12T08:18:55.638Z,40.00
2018-04-12T08:19:55.836Z,40.00
2018-04-12T08:20:56.035Z,41.50
2018-04-12T08:21:56.229Z,42.80
2018-04-12T08:22:56.433Z,43.70
2018-04-12T08:23:56.625Z,42.20
2018-04-12T08:24:56.823Z,41.10
2018-04-12T08:25:57.026Z,41.20
2018-04-12T08:26:57.218Z,39.10
2018-04-12T08:27:57.417Z,38.00
2018-04-12T08:28:57.614Z,40.80
2018-04-12T08:29:57.816Z,40.40
2018-04-12T08:30:58.012Z,31.10
2018-04-12T08:31:58.207Z,39.30
2018-04-12T08:32:58.405Z,38.90
2018-04-12T08:33:58.601Z,38.80
2018-04-12T08:34:58.803Z,39.30
2018-04-12T08:35:58.994Z,41.20
2018-04-12T08:36:59.192Z,39.80
2018-04-12T08:37:59.388Z,38.60
2018-04-12T08:38:59.584Z,40.40
2018-04-12T08:39:59.781Z,40.90
2018-04-12T08:40:59.978Z,38.30
2018-04-12T08:42:00.175Z,39.40
2018-04-12T08:43:00.370Z,39.70
2018-04-12T08:44:00.565Z,39.60
2018-04-12T08:45:00.763Z,35.90
2018-04-12T08:46:00.959Z,37.80
2018-04-12T08:47:01.156Z,37.50
2018-04-12T08:48:01.389Z,37.80
2018-04-12T08:49:01.549Z,38.60
2018-04-12T08:50:01.749Z,37.40
2018-04-12T08:51:01.945Z,33.90
2018-04-12T08:52:02.166Z,40.50
2018-04-12T08:53:02.337Z,34.40
2018-04-12T08:54:02.533Z,37.60
2018-04-12T08:55:02.730Z,36.80
2018-04-12T08:56:02.927Z,36.90
2018-04-12T08:57:03.124Z,40.90
2018-04-12T08:58:03.336Z,37.40
2018-04-12T08:59:03.624Z,37.60
2018-04-12T09:00:03.788Z,38.00
2018-04-12T09:01:03.873Z,35.40
2018-04-12T09:02:04.070Z,34.80
2018-04-12T09:03:04.263Z,38.30
2018-04-12T09:04:04.460Z,39.80
2018-04-12T09:05:04.659Z,36.50
2018-04-12T09:06:04.857Z,37.10
2018-04-12T09:07:05.052Z,35.40
2018-04-12T09:08:05.249Z,37.10
2018-04-12T09:09:05.447Z,36.90
2018-04-12T09:10:05.644Z,34.80
2018-04-12T09:11:05.839Z,34.80
2018-04-12T09:12:06.037Z,32.60
2018-04-12T09:13:06.236Z,36.90
2018-04-12T09:14:06.432Z,37.20
2018-04-12T09:15:06.629Z,35.20
2018-04-12T09:16:06.828Z,36.90
2018-04-12T09:17:07.027Z,34.90
2018-04-12T09:18:07.224Z,35.20
2018-04-12T09:19:07.421Z,35.80
2018-04-12T09:20:07.618Z,35.30
2018-04-12T09:21:07.815Z,33.20
2018-04-12T09:22:08.013Z,34.90
2018-04-12T09:23:08.209Z,27.60
2018-04-12T09:24:08.407Z,35.80
2018-04-12T09:25:08.608Z,36.40
2018-04-12T09:26:08.798Z,35.30
2018-04-12T09:27:08.993Z,36.40
2018-04-12T09:28:09.197Z,36.10
2018-04-12T09:29:09.389Z,36.50
2018-04-12T09:30:09.585Z,35.70
2018-04-12T09:31:09.783Z,34.90
2018-04-12T09:32:09.979Z,35.60
2018-04-12T09:33:10.174Z,35.70
2018-04-12T09:34:10.374Z,32.20
2018-04-12T09:35:10.570Z,32.40
2018-04-12T09:36:10.768Z,32.80
2018-04-12T09:37:10.963Z,31.40
2018-04-12T09:38:11.159Z,29.70
2018-04-12T09:39:11.359Z,34.40
2018-04-12T09:40:11.550Z,29.80
2018-04-12T09:41:11.746Z,33.20
2018-04-12T09:42:11.941Z,32.70
2018-04-12T09:43:12.135Z,33.40
2018-04-12T09:44:12.329Z,29.40
2018-04-12T09:45:12.523Z,30.10
2018-04-12T09:46:12.717Z,33.70
2018-04-12T09:47:12.908Z,35.40
2018-04-12T09:48:13.102Z,34.80
2018-04-12T09:49:13.307Z,31.30
2018-04-12T09:50:13.488Z,32.70
2018-04-12T09:51:13.682Z,33.30
2018-04-12T09:52:13.873Z,34.50
2018-04-12T09:53:14.067Z,29.60
2018-04-12T09:54:14.260Z,29.60
2018-04-12T09:55:14.453Z,31.70
2018-04-12T09:56:14.645Z,30.80
2018-04-12T09:57:14.840Z,29.20
2018-04-12T09:58:15.032Z,30.90
2018-04-12T09:59:15.225Z,32.40
2018-04-12T10:00:15.418Z,30.70
2018-04-12T10:01:15.613Z,31.80
2018-04-12T10:02:15.802Z,31.10
2018-04-12T10:03:15.999Z,31.60
2018-04-12T10:04:16.188Z,30.80
2018-04-12T10:05:16.380Z,29.60
2018-04-12T10:06:16.573Z,30.50
2018-04-12T10:07:16.767Z,29.80
2018-04-12T10:08:16.964Z,30.20
2018-04-12T10:09:17.151Z,28.50
2018-04-12T10:10:17.345Z,29.20
2018-04-12T10:11:17.538Z,29.60
2018-04-12T10:12:17.730Z,32.30
2018-04-12T10:13:17.922Z,30.10
2018-04-12T10:14:18.117Z,31.10
2018-04-12T10:15:18.310Z,30.60
2018-04-12T10:16:18.504Z,30.80
2018-04-12T10:17:18.696Z,30.70
2018-04-12T10:18:18.888Z,29.80
2018-04-12T10:19:19.080Z,26.50
2018-04-12T10:20:19.273Z,28.50
2018-04-12T10:21:19.467Z,26.20
2018-04-12T10:22:19.660Z,26.20
2018-04-12T10:23:19.852Z,26.50
2018-04-12T10:24:20.045Z,28.30
2018-04-12T10:25:20.237Z,28.00
2018-04-12T10:26:20.430Z,27.70
2018-04-12T10:27:20.622Z,26.50
2018-04-12T10:28:20.797Z,25.70
2018-04-12T10:29:20.990Z,26.90
2018-04-12T10:30:21.181Z,27.00
2018-04-12T10:31:21.373Z,26.60
2018-04-12T10:32:21.567Z,25.90
2018-04-12T10:33:21.758Z,25.80
2018-04-12T10:34:21.953Z,25.50
2018-04-12T10:35:22.145Z,25.50
2018-04-12T10:36:22.338Z,26.30
2018-04-12T10:37:22.530Z,24.70
2018-04-12T10:38:22.723Z,24.90
2018-04-12T10:39:22.932Z,25.60
2018-04-12T10:40:23.108Z,27.10
2018-04-12T10:41:23.301Z,25.60
2018-04-12T10:42:23.498Z,27.30
2018-04-12T10:43:23.685Z,27.00
2018-04-12T10:44:23.909Z,25.70
2018-04-12T10:45:24.077Z,25.50
2018-04-12T10:46:24.266Z,26.90
2018-04-12T10:47:24.459Z,26.70
2018-04-12T10:48:24.654Z,25.90
2018-04-12T10:49:24.852Z,27.90
2018-04-12T10:50:25.045Z,27.70
2018-04-12T10:51:25.236Z,27.40
2018-04-12T10:52:25.428Z,26.50
2018-04-12T10:53:25.627Z,27.10
2018-04-12T10:54:25.816Z,26.60
2018-04-12T10:55:26.015Z,27.20
2018-04-12T10:56:26.204Z,26.90
2018-04-12T10:57:26.397Z,27.30
2018-04-12T10:58:26.590Z,27.50
2018-04-12T10:59:26.840Z,27.40
2018-04-12T11:00:26.976Z,27.10
2018-04-12T11:01:27.170Z,26.50
2018-04-12T11:02:27.363Z,28.00
2018-04-12T11:03:27.623Z,29.00
2018-04-12T11:04:27.750Z,29.70
2018-04-12T11:05:27.943Z,27.50
2018-04-12T11:06:28.143Z,29.70
2018-04-12T11:07:28.331Z,28.10
2018-04-12T11:08:28.525Z,25.70
2018-04-12T11:09:28.720Z,26.80
2018-04-12T11:10:28.913Z,29.80
2018-04-12T11:11:29.108Z,29.50
2018-04-12T11:12:29.303Z,28.10
2018-04-12T11:13:29.495Z,28.10
2018-04-12T11:14:29.689Z,28.10
2018-04-12T11:15:29.882Z,28.90
2018-04-12T11:16:30.081Z,28.50
2018-04-12T11:17:30.269Z,29.30
2018-04-12T11:18:30.583Z,28.30
2018-04-12T11:19:30.657Z,28.50
2018-04-12T11:20:30.850Z,29.20
2018-04-12T11:21:31.043Z,28.70
2018-04-12T11:22:31.240Z,28.30
2018-04-12T11:23:31.452Z,27.80
2018-04-12T11:24:31.624Z,28.70
2018-04-12T11:25:31.818Z,27.30
2018-04-12T11:26:32.012Z,26.30
2018-04-12T11:27:32.203Z,28.30
2018-04-12T11:28:32.432Z,28.00
2018-04-12T11:29:32.588Z,28.70
2018-04-12T11:30:32.780Z,28.70
2018-04-12T11:31:33.009Z,26.20
2018-04-12T11:32:33.171Z,28.10
2018-04-12T11:33:33.361Z,28.50
2018-04-12T11:34:33.570Z,27.80
2018-04-12T11:35:33.748Z,28.50
2018-04-12T11:36:33.942Z,28.20
2018-04-12T11:37:34.135Z,26.80
2018-04-12T11:38:34.329Z,26.10
2018-04-12T11:39:34.522Z,27.10
2018-04-12T11:40:34.748Z,27.30
2018-04-12T11:41:34.909Z,25.90
2018-04-12T11:42:35.109Z,30.00
2018-04-12T11:43:35.294Z,28.90
2018-04-12T11:44:35.487Z,24.60
2018-04-12T11:45:35.677Z,24.50
2018-04-12T11:46:35.906Z,25.40
2018-04-12T11:47:36.065Z,24.90
2018-04-12T11:48:36.257Z,26.70
2018-04-12T11:49:36.456Z,24.70
2018-04-12T11:50:36.644Z,25.90
2018-04-12T11:51:36.840Z,25.40
2018-04-12T11:52:37.031Z,24.20
2018-04-12T11:53:37.221Z,22.50
2018-04-12T11:54:37.414Z,22.40
2018-04-12T11:55:37.608Z,22.90
2018-04-12T11:56:37.800Z,22.80
2018-04-12T11:57:37.993Z,22.80
2018-04-12T11:58:38.188Z,23.50
2018-04-12T11:59:38.380Z,22.60
2018-04-12T12:00:38.571Z,20.80
2018-04-12T12:01:38.806Z,19.20
2018-04-12T12:02:38.956Z,17.80
2018-04-12T12:03:39.151Z,14.80
2018-04-12T12:04:39.344Z,15.70
2018-04-12T12:05:39.537Z,18.00
2018-04-12T12:06:39.731Z,17.40
2018-04-12T12:07:39.924Z,17.70
2018-04-12T12:08:40.117Z,18.50
2018-04-12T12:09:40.309Z,22.40
2018-04-12T12:10:40.505Z,21.30
2018-04-12T12:11:40.697Z,21.40
2018-04-12T12:12:40.890Z,20.50
2018-04-12T12:13:41.084Z,20.60
2018-04-12T12:14:41.277Z,20.40
2018-04-12T12:15:41.471Z,20.40
2018-04-12T12:16:41.666Z,20.40
2018-04-12T12:17:41.899Z,19.80
2018-04-12T12:18:42.049Z,19.00
2018-04-12T12:19:42.240Z,16.80
2018-04-12T12:20:42.435Z,18.10
2018-04-12T12:21:42.630Z,17.70
2018-04-12T12:22:42.823Z,18.30
2018-04-12T12:23:43.045Z,17.70
2018-04-12T12:24:43.210Z,19.30
2018-04-12T12:25:43.405Z,15.30
2018-04-12T12:26:43.597Z,13.00
2018-04-12T12:27:43.791Z,12.30
2018-04-12T12:28:43.984Z,12.90
2018-04-12T12:29:44.180Z,13.70
2018-04-12T12:30:44.370Z,12.80
2018-04-12T12:31:44.564Z,13.20
2018-04-12T12:32:44.759Z,12.20
2018-04-12T12:33:44.953Z,11.90
2018-04-12T12:34:45.146Z,12.20
2018-04-12T12:35:45.342Z,11.50
2018-04-12T12:36:45.538Z,11.40
2018-04-12T12:37:45.734Z,13.00
2018-04-12T12:38:45.927Z,12.80
2018-04-12T12:39:46.121Z,12.70
2018-04-12T12:40:46.316Z,13.50
2018-04-12T12:41:46.510Z,13.70
2018-04-12T12:42:46.705Z,13.60
2018-04-12T12:43:46.942Z,13.30
2018-04-12T12:44:47.094Z,13.50
2018-04-12T12:45:47.294Z,13.70
2018-04-12T12:46:47.484Z,14.10
2018-04-12T12:47:47.678Z,14.40
2018-04-12T12:48:47.872Z,14.30
2018-04-12T12:49:48.069Z,13.80
2018-04-12T12:50:48.266Z,14.20
2018-04-12T12:51:48.461Z,14.00
2018-04-12T12:52:48.655Z,13.10
2018-04-12T12:53:48.854Z,13.70
2018-04-12T12:54:49.045Z,14.00